createdAt,value
2022-12-04T00:01:14.974Z,-0.78
2022-12-04T00:03:41.678Z,-0.77
2022-12-04T00:06:17.202Z,-0.77
2022-12-04T00:08:45.426Z,-0.76
2022-12-04T00:11:13.761Z,-0.74
2022-12-04T00:13:41.238Z,-0.75
2022-12-04T00:16:11.228Z,-0.76
2022-12-04T00:18:37.704Z,-0.75
2022-12-04T00:21:05.621Z,-0.73
2022-12-04T00:23:32.640Z,-0.73
2022-12-04T00:26:11.746Z,-0.72
2022-12-04T00:28:38.977Z,-0.73
2022-12-04T00:31:11.437Z,-0.75
2022-12-04T00:33:38.045Z,-0.77
2022-12-04T00:36:07.820Z,-0.79
2022-12-04T00:38:34.843Z,-0.82
2022-12-04T00:41:01.208Z,-0.84
2022-12-04T00:43:28.622Z,-0.86
2022-12-04T00:45:55.075Z,-0.89
2022-12-04T00:48:24.507Z,-0.92
2022-12-04T00:50:51.064Z,-0.95
2022-12-04T00:53:17.771Z,-0.99
2022-12-04T00:55:44.423Z,-1.02
2022-12-04T00:58:11.918Z,-1.02
2022-12-04T01:00:42.034Z,-1.01
2022-12-04T01:03:09.180Z,-1.00
2022-12-04T01:05:44.544Z,-1.01
2022-12-04T01:08:12.478Z,-1.03
2022-12-04T01:10:41.004Z,-1.03
2022-12-04T01:13:07.447Z,-1.06
2022-12-04T01:15:33.848Z,-1.07
2022-12-04T01:18:00.284Z,-1.10
2022-12-04T01:20:26.663Z,-1.10
2022-12-04T01:22:53.144Z,-1.07
2022-12-04T01:25:19.790Z,-1.08
2022-12-04T01:27:46.280Z,-1.09
2022-12-04T01:30:12.896Z,-1.09
2022-12-04T01:32:39.313Z,-1.10
2022-12-04T01:35:06.267Z,-1.12
2022-12-04T01:37:33.014Z,-1.15
2022-12-04T01:39:59.599Z,-1.17
2022-12-04T01:42:26.291Z,-1.18
2022-12-04T01:45:29.942Z,-1.26
2022-12-04T01:48:00.521Z,-1.34
2022-12-04T01:50:26.942Z,-1.36
2022-12-04T01:52:53.347Z,-1.41
2022-12-04T01:55:19.780Z,-1.45
2022-12-04T01:57:46.653Z,-1.46
2022-12-04T02:00:15.617Z,-1.53
2022-12-04T02:02:45.150Z,-1.57
2022-12-04T02:05:14.796Z,-1.54
2022-12-04T02:07:43.193Z,-1.53
2022-12-04T02:10:11.514Z,-1.51
2022-12-04T02:13:06.950Z,-1.44
2022-12-04T02:15:43.440Z,-1.37
2022-12-04T02:18:25.609Z,-1.28
2022-12-04T02:21:10.214Z,-1.23
2022-12-04T02:23:36.532Z,-1.16
2022-12-04T02:26:24.741Z,-1.11
2022-12-04T02:29:20.988Z,-1.04
2022-12-04T02:31:59.412Z,-0.96
2022-12-04T02:34:30.106Z,-0.89
2022-12-04T02:37:05.049Z,-0.85
2022-12-04T02:39:39.405Z,-0.81
2022-12-04T02:42:16.776Z,-0.79
2022-12-04T02:44:49.429Z,-0.75
2022-12-04T02:47:21.996Z,-0.73
2022-12-04T02:49:57.167Z,-0.72
2022-12-04T02:52:30.203Z,-0.69
2022-12-04T02:55:08.028Z,-0.68
2022-12-04T02:57:40.752Z,-0.68
2022-12-04T03:00:09.009Z,-0.66
2022-12-04T03:02:40.871Z,-0.65
2022-12-04T03:05:12.808Z,-0.63
2022-12-04T03:07:49.111Z,-0.63
2022-12-04T03:10:22.601Z,-0.62
2022-12-04T03:12:53.030Z,-0.60
2022-12-04T03:15:26.639Z,-0.60
2022-12-04T03:18:18.255Z,-0.58
2022-12-04T03:20:48.051Z,-0.58
2022-12-04T03:23:26.706Z,-0.57
2022-12-04T03:26:02.292Z,-0.56
2022-12-04T03:28:46.691Z,-0.54
2022-12-04T03:31:18.628Z,-0.54
2022-12-04T03:33:47.693Z,-0.54
2022-12-04T03:36:21.253Z,-0.54
2022-12-04T03:38:53.295Z,-0.53
2022-12-04T03:41:28.503Z,-0.52
2022-12-04T03:44:12.055Z,-0.52
2022-12-04T03:46:51.467Z,-0.52
2022-12-04T03:49:59.583Z,-0.52
2022-12-04T03:52:34.918Z,-0.51
2022-12-04T03:55:11.158Z,-0.51
2022-12-04T03:57:42.519Z,-0.51
2022-12-04T04:00:14.121Z,-0.50
2022-12-04T04:02:46.708Z,-0.51
2022-12-04T04:05:15.405Z,-0.51
2022-12-04T04:07:46.812Z,-0.50
2022-12-04T04:10:18.656Z,-0.50
2022-12-04T04:13:16.931Z,-0.49
2022-12-04T04:16:11.492Z,-0.47
2022-12-04T04:18:58.686Z,-0.46
2022-12-04T04:22:09.334Z,-0.48
2022-12-04T04:24:53.550Z,-0.47
2022-12-04T04:27:19.986Z,-0.45
2022-12-04T04:29:52.068Z,-0.45
2022-12-04T04:32:25.387Z,-0.44
2022-12-04T04:35:03.841Z,-0.45
2022-12-04T04:37:33.154Z,-0.45
2022-12-04T04:40:14.180Z,-0.45
2022-12-04T04:43:18.997Z,-0.45
2022-12-04T04:45:55.165Z,-0.45
2022-12-04T04:48:32.663Z,-0.45
2022-12-04T04:51:01.327Z,-0.45
2022-12-04T04:53:35.296Z,-0.45
2022-12-04T04:56:02.361Z,-0.45
2022-12-04T04:58:28.761Z,-0.43
2022-12-04T05:00:58.904Z,-0.43
2022-12-04T05:03:26.955Z,-0.42
2022-12-04T05:05:54.330Z,-0.43
2022-12-04T05:08:21.089Z,-0.43
2022-12-04T05:10:47.799Z,-0.42
2022-12-04T05:13:15.432Z,-0.43
2022-12-04T05:15:42.684Z,-0.41
2022-12-04T05:18:09.314Z,-0.42
2022-12-04T05:20:38.654Z,-0.42
2022-12-04T05:23:05.063Z,-0.43
2022-12-04T05:25:31.479Z,-0.42
2022-12-04T05:27:58.271Z,-0.42
2022-12-04T05:30:24.699Z,-0.40
2022-12-04T05:32:51.242Z,-0.41
2022-12-04T05:35:17.610Z,-0.40
2022-12-04T05:37:45.476Z,-0.38
2022-12-04T05:40:12.330Z,-0.39
2022-12-04T05:42:38.824Z,-0.38
2022-12-04T05:45:05.806Z,-0.39
2022-12-04T05:47:32.177Z,-0.39
2022-12-04T05:49:58.666Z,-0.38
2022-12-04T05:52:25.049Z,-0.40
2022-12-04T05:54:51.403Z,-0.39
2022-12-04T05:57:17.741Z,-0.41
2022-12-04T05:59:44.072Z,-0.42
2022-12-04T06:02:10.448Z,-0.43
2022-12-04T06:04:37.742Z,-0.44
2022-12-04T06:07:04.288Z,-0.46
2022-12-04T06:09:30.718Z,-0.47
2022-12-04T06:11:58.392Z,-0.47
2022-12-04T06:14:24.923Z,-0.48
2022-12-04T06:16:51.432Z,-0.46
2022-12-04T06:19:19.945Z,-0.45
2022-12-04T06:21:50.976Z,-0.43
2022-12-04T06:24:22.431Z,-0.42
2022-12-04T06:27:25.155Z,-0.43
2022-12-04T06:29:35.933Z,-0.43
2022-12-04T06:32:02.360Z,-0.45
2022-12-04T06:34:29.589Z,-0.44
2022-12-04T06:36:56.003Z,-0.44
2022-12-04T06:39:22.471Z,-0.46
2022-12-04T06:41:48.844Z,-0.47
2022-12-04T06:44:16.132Z,-0.51
2022-12-04T06:46:46.833Z,-0.54
2022-12-04T06:49:14.019Z,-0.53
2022-12-04T06:51:40.791Z,-0.53
2022-12-04T06:54:07.309Z,-0.54
2022-12-04T06:56:34.436Z,-0.55
2022-12-04T06:59:02.855Z,-0.56
2022-12-04T07:01:32.152Z,-0.55
2022-12-04T07:03:59.322Z,-0.53
2022-12-04T07:06:29.217Z,-0.52
2022-12-04T07:08:59.947Z,-0.52
2022-12-04T07:11:26.748Z,-0.51
2022-12-04T07:13:55.212Z,-0.51
2022-12-04T07:16:24.016Z,-0.48
2022-12-04T07:18:51.259Z,-0.49
2022-12-04T07:21:20.789Z,-0.48
2022-12-04T07:23:51.764Z,-0.47
2022-12-04T07:26:19.798Z,-0.47
2022-12-04T07:28:46.445Z,-0.45
2022-12-04T07:31:17.284Z,-0.44
2022-12-04T07:33:45.040Z,-0.42
2022-12-04T07:36:14.127Z,-0.41
2022-12-04T07:38:41.264Z,-0.40
2022-12-04T07:41:09.923Z,-0.40
2022-12-04T07:43:36.395Z,-0.40
2022-12-04T07:46:09.229Z,-0.38
2022-12-04T07:48:35.717Z,-0.38
2022-12-04T07:51:06.982Z,-0.38
2022-12-04T07:53:34.394Z,-0.39
2022-12-04T07:56:01.150Z,-0.37
2022-12-04T07:58:27.537Z,-0.38
2022-12-04T08:00:54.052Z,-0.36
2022-12-04T08:03:20.548Z,-0.36
2022-12-04T08:05:46.975Z,-0.36
2022-12-04T08:08:13.469Z,-0.37
2022-12-04T08:10:40.928Z,-0.37
2022-12-04T08:13:07.352Z,-0.39
2022-12-04T08:15:34.961Z,-0.39
2022-12-04T08:18:01.347Z,-0.39
2022-12-04T08:20:27.695Z,-0.39
2022-12-04T08:22:54.086Z,-0.37
2022-12-04T08:25:20.485Z,-0.37
2022-12-04T08:27:47.932Z,-0.38
2022-12-04T08:30:14.491Z,-0.39
2022-12-04T08:32:40.944Z,-0.39
2022-12-04T08:35:07.815Z,-0.41
2022-12-04T08:37:34.234Z,-0.39
2022-12-04T08:40:00.639Z,-0.40
2022-12-04T08:42:27.115Z,-0.40
2022-12-04T08:44:53.507Z,-0.41
2022-12-04T08:47:19.948Z,-0.41
2022-12-04T08:49:46.354Z,-0.42
2022-12-04T08:52:12.725Z,-0.42
2022-12-04T08:54:39.072Z,-0.40
2022-12-04T08:57:05.576Z,-0.41
2022-12-04T08:59:31.952Z,-0.42
2022-12-04T09:01:58.421Z,-0.44
2022-12-04T09:04:24.904Z,-0.43
2022-12-04T09:06:51.291Z,-0.45
2022-12-04T09:09:17.733Z,-0.43
2022-12-04T09:11:47.297Z,-0.43
2022-12-04T09:14:13.640Z,-0.41
2022-12-04T09:16:40.055Z,-0.42
2022-12-04T09:19:06.463Z,-0.43
2022-12-04T09:21:33.011Z,-0.40
2022-12-04T09:24:00.105Z,-0.41
2022-12-04T09:26:29.836Z,-0.40
2022-12-04T09:28:58.802Z,-0.39
2022-12-04T09:31:25.427Z,-0.38
2022-12-04T09:33:52.697Z,-0.39
2022-12-04T09:36:19.891Z,-0.36
2022-12-04T09:38:48.838Z,-0.36
2022-12-04T09:41:36.449Z,-0.34
2022-12-04T09:44:18.538Z,-0.32
2022-12-04T09:47:02.745Z,-0.30
2022-12-04T09:49:47.721Z,-0.29
2022-12-04T09:52:50.248Z,-0.33
2022-12-04T09:55:51.583Z,-0.29
2022-12-04T09:58:23.720Z,-0.27
2022-12-04T10:00:52.806Z,-0.26
2022-12-04T10:03:21.563Z,-0.25
2022-12-04T10:06:16.271Z,-0.24
2022-12-04T10:08:46.507Z,-0.26
2022-12-04T10:11:30.684Z,-0.26
2022-12-04T10:13:58.784Z,-0.26
2022-12-04T10:16:45.448Z,-0.25
2022-12-04T10:19:39.094Z,-0.24
2022-12-04T10:22:23.866Z,-0.24
2022-12-04T10:24:56.531Z,-0.22
2022-12-04T10:27:39.591Z,-0.21
2022-12-04T10:30:26.922Z,-0.23
2022-12-04T10:33:15.721Z,-0.24
2022-12-04T10:35:44.612Z,-0.27
2022-12-04T10:38:31.961Z,-0.33
2022-12-04T10:41:07.665Z,-0.36
2022-12-04T10:43:43.245Z,-0.34
2022-12-04T10:46:23.624Z,-0.36
2022-12-04T10:48:54.970Z,-0.36
2022-12-04T10:51:22.794Z,-0.33
2022-12-04T10:53:49.993Z,-0.35
2022-12-04T10:56:19.921Z,-0.37
2022-12-04T10:59:04.090Z,-0.36
2022-12-04T11:01:33.962Z,-0.38
2022-12-04T11:04:07.993Z,-0.37
2022-12-04T11:06:35.332Z,-0.37
2022-12-04T11:09:03.629Z,-0.39
2022-12-04T11:11:33.047Z,-0.40
2022-12-04T11:14:02.363Z,-0.45
2022-12-04T11:16:44.460Z,-0.49
2022-12-04T11:19:31.977Z,-0.51
2022-12-04T11:22:19.339Z,-0.50
2022-12-04T11:24:57.417Z,-0.52
2022-12-04T11:27:31.493Z,-0.51
2022-12-04T11:30:01.640Z,-0.49
2022-12-04T11:32:33.520Z,-0.51
2022-12-04T11:35:07.322Z,-0.48
2022-12-04T11:37:34.830Z,-0.51
2022-12-04T11:40:05.507Z,-0.49
2022-12-04T11:42:32.354Z,-0.46
2022-12-04T11:45:18.698Z,-0.44
2022-12-04T11:47:56.652Z,-0.43
2022-12-04T11:50:31.202Z,-0.43
2022-12-04T11:53:10.131Z,-0.42
2022-12-04T11:55:52.771Z,-0.40
2022-12-04T11:58:38.081Z,-0.38
2022-12-04T12:01:19.708Z,-0.38
2022-12-04T12:04:04.874Z,-0.37
2022-12-04T12:06:34.413Z,-0.34
2022-12-04T12:09:18.137Z,-0.32
2022-12-04T12:12:05.877Z,-0.29
2022-12-04T12:14:44.075Z,-0.27
2022-12-04T12:17:28.634Z,-0.27
2022-12-04T12:20:15.001Z,-0.27
2022-12-04T12:22:58.971Z,-0.26
2022-12-04T12:25:52.264Z,-0.25
2022-12-04T12:28:57.095Z,-0.24
2022-12-04T12:31:35.883Z,-0.22
2022-12-04T12:34:11.563Z,-0.21
2022-12-04T12:36:45.370Z,-0.18
2022-12-04T12:39:26.595Z,-0.19
2022-12-04T12:41:57.171Z,-0.18
2022-12-04T12:44:29.700Z,-0.17
2022-12-04T12:47:09.320Z,-0.13
2022-12-04T12:50:00.551Z,-0.12
2022-12-04T12:53:14.384Z,-0.08
2022-12-04T12:55:53.706Z,-0.06
2022-12-04T12:58:39.871Z,-0.05
2022-12-04T13:01:25.015Z,0.00
2022-12-04T13:04:11.388Z,0.01
2022-12-04T13:06:44.282Z,0.05
2022-12-04T13:09:33.375Z,0.09
2022-12-04T13:12:11.167Z,0.15
2022-12-04T13:14:37.814Z,0.16
2022-12-04T13:17:13.577Z,0.15
2022-12-04T13:19:51.772Z,0.14
2022-12-04T13:22:34.332Z,0.15
2022-12-04T13:25:06.822Z,0.19
2022-12-04T13:28:00.945Z,0.22
2022-12-04T13:30:59.181Z,0.25
2022-12-04T13:33:51.783Z,0.31
2022-12-04T13:36:25.741Z,0.35
2022-12-04T13:39:27.148Z,0.37
2022-12-04T13:42:02.553Z,0.41
2022-12-04T13:44:31.486Z,0.46
2022-12-04T13:47:05.163Z,0.49
2022-12-04T13:49:34.368Z,0.51
2022-12-04T13:52:03.473Z,0.53
2022-12-04T13:54:37.489Z,0.55
2022-12-04T13:57:15.899Z,0.57
2022-12-04T13:59:43.498Z,0.57
2022-12-04T14:02:32.338Z,0.59
2022-12-04T14:05:06.007Z,0.63
2022-12-04T14:07:37.219Z,0.66
2022-12-04T14:10:28.140Z,0.68
2022-12-04T14:12:59.763Z,0.70
2022-12-04T14:15:29.838Z,0.71
2022-12-04T14:18:18.431Z,0.72
2022-12-04T14:20:44.959Z,0.73
2022-12-04T14:23:19.903Z,0.74
2022-12-04T14:25:46.259Z,0.76
2022-12-04T14:28:38.650Z,0.75
2022-12-04T14:31:17.201Z,0.77
2022-12-04T14:34:24.352Z,0.79
2022-12-04T14:36:53.915Z,0.79
2022-12-04T14:39:27.208Z,0.81
2022-12-04T14:42:03.839Z,0.83
2022-12-04T14:44:31.321Z,0.86
2022-12-04T14:47:13.532Z,0.85
2022-12-04T14:50:15.078Z,0.85
2022-12-04T14:52:53.033Z,0.85
2022-12-04T14:55:37.338Z,0.85
2022-12-04T14:58:32.481Z,0.86
2022-12-04T15:01:19.988Z,0.86
2022-12-04T15:03:52.523Z,0.85
2022-12-04T15:06:24.858Z,0.86
2022-12-04T15:09:22.669Z,0.88
2022-12-04T15:12:11.035Z,0.88
2022-12-04T15:14:48.782Z,0.91
2022-12-04T15:17:17.651Z,0.93
2022-12-04T15:19:44.416Z,0.95
2022-12-04T15:22:22.669Z,0.96
2022-12-04T15:24:50.986Z,0.95
2022-12-04T15:27:20.983Z,0.95
2022-12-04T15:29:49.081Z,0.93
2022-12-04T15:32:20.436Z,0.92
2022-12-04T15:34:51.899Z,0.91
2022-12-04T15:37:22.507Z,0.90
2022-12-04T15:39:52.530Z,0.89
2022-12-04T15:42:22.277Z,0.89
2022-12-04T15:44:55.093Z,0.87
2022-12-04T15:47:24.616Z,0.89
2022-12-04T15:49:51.438Z,0.88
2022-12-04T15:52:20.729Z,0.91
2022-12-04T15:55:01.114Z,0.89
2022-12-04T15:57:37.464Z,0.89
2022-12-04T16:00:08.485Z,0.88
2022-12-04T16:02:39.877Z,0.87
2022-12-04T16:05:21.437Z,0.87
2022-12-04T16:07:54.227Z,0.86
2022-12-04T16:10:30.078Z,0.86
2022-12-04T16:12:59.378Z,0.85
2022-12-04T16:15:36.107Z,0.86
2022-12-04T16:18:05.916Z,0.86
2022-12-04T16:20:35.883Z,0.86
2022-12-04T16:23:02.975Z,0.89
2022-12-04T16:25:32.491Z,0.88
2022-12-04T16:27:59.662Z,0.88
2022-12-04T16:30:28.245Z,0.89
2022-12-04T16:32:54.670Z,0.90
2022-12-04T16:35:21.312Z,0.90
2022-12-04T16:37:47.773Z,0.90
2022-12-04T16:40:15.084Z,0.90
2022-12-04T16:42:42.479Z,0.90
2022-12-04T16:45:23.347Z,0.92
2022-12-04T16:47:49.730Z,0.91
2022-12-04T16:50:16.958Z,0.92
2022-12-04T16:52:43.392Z,0.90
2022-12-04T16:55:19.710Z,0.91
2022-12-04T16:57:47.036Z,0.91
2022-12-04T17:00:17.899Z,0.92
2022-12-04T17:02:45.727Z,0.91
2022-12-04T17:05:19.255Z,0.92
2022-12-04T17:07:46.123Z,0.93
2022-12-04T17:10:13.381Z,0.97
2022-12-04T17:12:40.670Z,1.00
2022-12-04T17:15:08.465Z,1.03
2022-12-04T17:17:34.972Z,1.04
2022-12-04T17:20:01.453Z,1.10
2022-12-04T17:22:28.077Z,1.19
2022-12-04T17:24:56.281Z,1.20
2022-12-04T17:27:23.989Z,1.22
2022-12-04T17:29:50.409Z,1.24
2022-12-04T17:32:17.031Z,1.21
2022-12-04T17:34:43.395Z,1.19
2022-12-04T17:37:09.788Z,1.17
2022-12-04T17:39:36.291Z,1.15
2022-12-04T17:42:02.710Z,1.16
2022-12-04T17:44:29.209Z,1.14
2022-12-04T17:46:55.865Z,1.15
2022-12-04T17:49:22.289Z,1.18
2022-12-04T17:51:48.655Z,1.19
2022-12-04T17:54:15.152Z,1.19
2022-12-04T17:56:46.202Z,1.23
2022-12-04T17:59:15.217Z,1.23
2022-12-04T18:01:41.593Z,1.23
2022-12-04T18:04:09.072Z,1.22
2022-12-04T18:06:38.156Z,1.22
2022-12-04T18:09:07.556Z,1.22
2022-12-04T18:11:36.469Z,1.23
2022-12-04T18:14:11.528Z,1.23
2022-12-04T18:16:41.056Z,1.24
2022-12-04T18:19:07.568Z,1.26
2022-12-04T18:21:34.526Z,1.27
2022-12-04T18:24:03.587Z,1.27
2022-12-04T18:26:35.805Z,1.30
2022-12-04T18:29:02.435Z,1.33
2022-12-04T18:31:28.942Z,1.34
2022-12-04T18:33:55.338Z,1.35
2022-12-04T18:36:26.973Z,1.36
2022-12-04T18:38:55.751Z,1.38
2022-12-04T18:41:22.805Z,1.41
2022-12-04T18:43:49.348Z,1.46
2022-12-04T18:46:17.005Z,1.47
2022-12-04T18:48:44.897Z,1.50
2022-12-04T18:51:22.174Z,1.54
2022-12-04T18:53:49.784Z,1.58
2022-12-04T18:56:17.344Z,1.62
2022-12-04T18:58:44.596Z,1.63
2022-12-04T19:01:14.279Z,1.64
2022-12-04T19:03:41.705Z,1.66
2022-12-04T19:06:08.687Z,1.70
2022-12-04T19:08:38.748Z,1.72
2022-12-04T19:11:12.302Z,1.73
2022-12-04T19:13:39.067Z,1.75
2022-12-04T19:16:11.222Z,1.79
2022-12-04T19:18:37.622Z,1.81
2022-12-04T19:21:08.177Z,1.81
2022-12-04T19:23:34.919Z,1.82
2022-12-04T19:26:01.732Z,1.83
2022-12-04T19:28:28.491Z,1.83
2022-12-04T19:30:55.864Z,1.83
2022-12-04T19:33:23.485Z,1.83
2022-12-04T19:35:57.713Z,1.83
2022-12-04T19:38:24.489Z,1.85
2022-12-04T19:40:50.934Z,1.86
2022-12-04T19:43:17.347Z,1.85
2022-12-04T19:45:49.987Z,1.87
2022-12-04T19:48:16.728Z,1.89
2022-12-04T19:50:43.090Z,1.90
2022-12-04T19:53:09.507Z,1.91
2022-12-04T19:55:36.727Z,1.93
2022-12-04T19:58:03.368Z,1.93
2022-12-04T20:00:29.783Z,1.93
2022-12-04T20:02:56.196Z,1.92
2022-12-04T20:05:22.641Z,1.95
2022-12-04T20:07:49.085Z,1.95
2022-12-04T20:10:16.003Z,1.96
2022-12-04T20:12:42.494Z,1.96
2022-12-04T20:15:09.530Z,1.97
2022-12-04T20:17:35.856Z,1.99
2022-12-04T20:20:02.256Z,2.00
2022-12-04T20:22:30.196Z,2.02
2022-12-04T20:24:56.585Z,2.02
2022-12-04T20:27:22.967Z,2.03
2022-12-04T20:29:49.330Z,2.04
2022-12-04T20:32:15.720Z,2.06
2022-12-04T20:34:43.880Z,2.07
2022-12-04T20:37:10.532Z,2.07
2022-12-04T20:39:37.800Z,2.10
2022-12-04T20:42:04.272Z,2.12
2022-12-04T20:44:30.728Z,2.13
2022-12-04T20:46:58.229Z,2.12
2022-12-04T20:49:24.654Z,2.13
2022-12-04T20:51:52.223Z,2.12
2022-12-04T20:54:20.790Z,2.13
2022-12-04T20:56:49.033Z,2.14
2022-12-04T20:59:17.961Z,2.13
2022-12-04T21:01:44.510Z,2.13
2022-12-04T21:04:12.675Z,2.13
2022-12-04T21:06:40.476Z,2.12
2022-12-04T21:09:11.581Z,2.12
2022-12-04T21:11:40.525Z,2.11
2022-12-04T21:14:38.060Z,2.14
2022-12-04T21:17:06.765Z,2.13
2022-12-04T21:19:33.497Z,2.12
2022-12-04T21:21:59.891Z,2.12
2022-12-04T21:24:30.249Z,2.12
2022-12-04T21:26:56.671Z,2.13
2022-12-04T21:29:23.187Z,2.14
2022-12-04T21:31:49.707Z,2.14
2022-12-04T21:34:18.139Z,2.15
2022-12-04T21:36:46.202Z,2.19
2022-12-04T21:39:14.179Z,2.19
2022-12-04T21:41:59.335Z,2.21
2022-12-04T21:44:25.762Z,2.22
2022-12-04T21:46:52.253Z,2.24
2022-12-04T21:49:19.316Z,2.24
2022-12-04T21:51:57.165Z,2.25
2022-12-04T21:54:25.048Z,2.27
2022-12-04T21:56:51.421Z,2.27
2022-12-04T21:59:17.783Z,2.28
2022-12-04T22:01:44.356Z,2.34
2022-12-04T22:04:10.840Z,2.36
2022-12-04T22:06:37.858Z,2.40
2022-12-04T22:09:07.896Z,2.41
2022-12-04T22:11:34.687Z,2.39
2022-12-04T22:14:01.109Z,2.42
2022-12-04T22:16:30.643Z,2.43
2022-12-04T22:18:59.228Z,2.44
2022-12-04T22:21:26.831Z,2.44
2022-12-04T22:24:01.811Z,2.45
2022-12-04T22:26:29.481Z,2.45
2022-12-04T22:28:56.557Z,2.46
2022-12-04T22:31:25.120Z,2.45
2022-12-04T22:33:54.135Z,2.46
2022-12-04T22:36:23.766Z,2.48
2022-12-04T22:41:37.257Z,2.50
2022-12-04T22:44:03.989Z,2.51
2022-12-04T22:46:30.449Z,2.55
2022-12-04T22:48:58.351Z,2.56
2022-12-04T22:51:24.693Z,2.56
2022-12-04T22:53:53.383Z,2.57
2022-12-04T22:56:21.299Z,2.57
2022-12-04T22:58:47.817Z,2.58
2022-12-04T23:01:36.535Z,2.58
2022-12-04T23:04:03.892Z,2.62
2022-12-04T23:06:32.108Z,2.62
2022-12-04T23:09:13.178Z,2.64
2022-12-04T23:11:39.644Z,2.66
2022-12-04T23:14:09.354Z,2.68
2022-12-04T23:16:37.735Z,2.69
2022-12-04T23:19:05.636Z,2.71
2022-12-04T23:21:32.661Z,2.73
2022-12-04T23:23:59.083Z,2.73
2022-12-04T23:26:34.229Z,2.72
2022-12-04T23:29:01.716Z,2.76
2022-12-04T23:31:29.002Z,2.78
2022-12-04T23:33:55.497Z,2.79
2022-12-04T23:36:21.924Z,2.84
2022-12-04T23:38:48.645Z,2.85
2022-12-04T23:41:21.357Z,2.82
2022-12-04T23:43:49.008Z,2.82
2022-12-04T23:46:17.831Z,2.89
2022-12-04T23:48:45.521Z,2.90
2022-12-04T23:51:13.942Z,2.91
2022-12-04T23:53:40.720Z,2.90
2022-12-04T23:56:11.819Z,2.90
2022-12-04T23:58:39.507Z,2.88
